Time;durP1;ratioP1;P1;durP2;ratioP2;P2;SDS_P1;SDS_P2;PMS_P1;PMS_P2;Temp;Humidity;BMP_temperature;BMP_pressure;BME280_temperature;BME280_humidity;BME280_pressure;Samples;Min_cycle;Max_cycle;Signal;HPM_P1;HPM_P2
2023/05/22 00:00:30;;;;;;;6.90;2.58;;;28.90;98.00;;;;;;5058349;28;20017;-48
2023/05/22 00:02:57;;;;;;;9.90;2.75;;;28.90;98.30;;;;;;5050640;28;20045;-52
2023/05/22 00:05:24;;;;;;;8.32;2.40;;;28.90;98.40;;;;;;5065134;28;20246;-49
2023/05/22 00:07:50;;;;;;;8.85;3.10;;;29.00;98.70;;;;;;5065554;28;20055;-46
2023/05/22 00:10:18;;;;;;;6.88;2.58;;;28.90;99.10;;;;;;5061085;28;20049;-49
2023/05/22 00:12:45;;;;;;;7.05;2.20;;;28.90;98.80;;;;;;5059535;28;20032;-47
2023/05/22 00:15:11;;;;;;;7.43;2.80;;;28.90;98.80;;;;;;5065110;28;20313;-46
2023/05/22 00:17:39;;;;;;;8.32;3.13;;;28.90;99.00;;;;;;5062674;28;20037;-49
2023/05/22 00:20:08;;;;;;;7.97;2.90;;;28.90;98.90;;;;;;5064940;28;20043;-52
2023/05/22 00:22:35;;;;;;;6.93;2.50;;;28.80;99.00;;;;;;5060610;28;20143;-52
2023/05/22 00:25:06;;;;;;;6.90;2.42;;;28.90;99.00;;;;;;5064678;28;20033;-46
2023/05/22 00:27:33;;;;;;;4.28;1.67;;;28.90;99.10;;;;;;5064920;28;20212;-56
2023/05/22 00:30:00;;;;;;;5.32;1.80;;;28.90;98.80;;;;;;5064886;28;20305;-55
2023/05/22 00:32:26;;;;;;;4.57;1.40;;;28.80;98.70;;;;;;5064653;28;20041;-55
2023/05/22 00:34:53;;;;;;;3.75;1.65;;;28.80;98.90;;;;;;5064729;28;20020;-52
2023/05/22 00:37:20;;;;;;;4.32;1.30;;;28.70;98.90;;;;;;5062872;28;20088;-50
2023/05/22 00:39:46;;;;;;;3.95;1.27;;;28.80;98.90;;;;;;5064478;28;20036;-53
2023/05/22 00:42:13;;;;;;;2.75;1.38;;;28.70;99.00;;;;;;5054763;28;20026;-49
2023/05/22 00:44:41;;;;;;;3.45;1.38;;;28.70;98.90;;;;;;5044468;28;20025;-52
2023/05/22 00:47:09;;;;;;;4.88;1.50;;;28.60;98.80;;;;;;5044445;28;20052;-52
2023/05/22 00:49:36;;;;;;;8.23;2.40;;;28.60;98.80;;;;;;5044452;28;20089;-47
2023/05/22 00:52:02;;;;;;;4.75;1.95;;;28.70;99.00;;;;;;5044449;28;20045;-51
2023/05/22 00:54:31;;;;;;;4.30;1.90;;;28.60;99.10;;;;;;5044270;28;20105;-56
2023/05/22 00:56:59;;;;;;;5.85;2.05;;;28.60;99.20;;;;;;5044289;28;20254;-47
2023/05/22 00:59:26;;;;;;;5.72;1.80;;;28.60;99.40;;;;;;5060695;28;20021;-50
2023/05/22 01:01:54;;;;;;;4.45;1.60;;;28.60;99.40;;;;;;5064010;28;20039;-48
2023/05/22 01:04:20;;;;;;;5.13;1.60;;;28.60;99.40;;;;;;5064102;28;20232;-54
2023/05/22 01:06:47;;;;;;;5.32;1.80;;;28.60;99.50;;;;;;5064466;28;20024;-49
2023/05/22 01:09:14;;;;;;;5.43;1.83;;;28.60;99.30;;;;;;5064000;28;20037;-50
2023/05/22 01:11:52;;;;;;;6.68;2.25;;;28.50;99.30;;;;;;5064049;28;20041;-49
2023/05/22 01:14:44;;;;;;;5.07;1.50;;;28.50;99.40;;;;;;5064018;28;20260;-55
2023/05/22 01:17:46;;;;;;;5.68;1.60;;;28.50;99.30;;;;;;5064420;28;20029;-51
2023/05/22 01:20:31;;;;;;;4.18;1.33;;;28.40;99.50;;;;;;5043960;28;20260;-48
2023/05/22 01:23:31;;;;;;;3.15;1.23;;;28.30;99.50;;;;;;5042839;28;20025;-51
2023/05/22 01:26:07;;;;;;;2.63;0.73;;;28.40;99.50;;;;;;5043757;28;20034;-50
2023/05/22 01:28:49;;;;;;;4.88;1.10;;;28.40;99.60;;;;;;5044264;28;20197;-50
2023/05/22 01:31:18;;;;;;;3.97;1.40;;;28.30;99.60;;;;;;5043591;28;20036;-49
2023/05/22 01:34:00;;;;;;;2.97;1.25;;;28.30;99.50;;;;;;5044200;28;20081;-47
2023/05/22 01:36:33;;;;;;;3.60;1.20;;;28.30;99.60;;;;;;5043712;28;20025;-55
2023/05/22 01:39:04;;;;;;;4.35;1.15;;;28.30;99.60;;;;;;5044245;28;20040;-46
2023/05/22 01:41:33;;;;;;;3.15;1.00;;;28.30;99.60;;;;;;5043720;28;20029;-45
2023/05/22 01:44:01;;;;;;;6.45;0.98;;;28.30;99.60;;;;;;5043487;28;20029;-47
2023/05/22 01:46:29;;;;;;;2.65;0.70;;;28.30;99.50;;;;;;5043706;28;20037;-46
2023/05/22 01:48:56;;;;;;;2.08;0.60;;;28.40;99.50;;;;;;5044191;28;20032;-49
2023/05/22 01:51:56;;;;;;;3.05;0.77;;;28.30;99.50;;;;;;5043580;28;20206;-46
2023/05/22 01:54:38;;;;;;;3.60;0.70;;;28.30;99.50;;;;;;5043552;28;20348;-47
2023/05/22 01:57:20;;;;;;;1.27;0.50;;;28.30;99.50;;;;;;5043622;28;20024;-50
2023/05/22 02:00:08;;;;;;;2.10;0.50;;;28.20;99.30;;;;;;5043514;28;20052;-49
2023/05/22 02:02:41;;;;;;;1.15;0.47;;;28.20;99.40;;;;;;5043708;28;20025;-42
2023/05/22 02:05:10;;;;;;;2.75;0.50;;;28.20;99.50;;;;;;5043402;28;20040;-53
2023/05/22 02:07:39;;;;;;;2.08;0.40;;;28.20;99.40;;;;;;5043640;28;20025;-51
2023/05/22 02:10:09;;;;;;;1.20;0.47;;;28.20;99.40;;;;;;5043262;28;20038;-52
2023/05/22 02:12:36;;;;;;;1.05;0.50;;;28.10;99.40;;;;;;5043618;28;20056;-43
2023/05/22 02:15:04;;;;;;;1.75;0.50;;;28.20;99.40;;;;;;5047080;28;20060;-47
2023/05/22 02:17:39;;;;;;;1.17;0.45;;;28.10;99.40;;;;;;5047355;28;20063;-47
2023/05/22 02:20:15;;;;;;;2.08;0.55;;;28.20;99.50;;;;;;5047313;28;20037;-48
2023/05/22 02:22:44;;;;;;;3.10;0.45;;;28.20;99.50;;;;;;5047503;28;20048;-52
2023/05/22 02:25:15;;;;;;;1.15;0.35;;;28.10;99.50;;;;;;5047116;28;20134;-47
2023/05/22 02:27:44;;;;;;;0.60;0.28;;;28.10;99.40;;;;;;5047252;28;20037;-43
2023/05/22 02:30:11;;;;;;;3.13;0.40;;;28.20;99.50;;;;;;5047068;28;20191;-43
2023/05/22 02:32:39;;;;;;;1.55;0.47;;;28.20;99.50;;;;;;5047228;28;20321;-51
2023/05/22 02:35:08;;;;;;;1.45;0.55;;;28.10;99.50;;;;;;5047027;28;20029;-50
2023/05/22 02:37:35;;;;;;;1.08;0.30;;;28.10;99.60;;;;;;5047004;28;20213;-51
2023/05/22 02:40:04;;;;;;;2.30;0.77;;;28.10;99.60;;;;;;5046987;28;20100;-52
2023/05/22 02:42:31;;;;;;;1.90;0.52;;;28.10;99.60;;;;;;5046965;28;20044;-45
2023/05/22 02:44:58;;;;;;;1.63;0.63;;;28.10;99.70;;;;;;5046689;28;20100;-47
2023/05/22 02:47:25;;;;;;;3.50;0.90;;;28.10;99.70;;;;;;5046852;28;20021;-45
2023/05/22 02:49:51;;;;;;;2.17;0.55;;;28.00;99.70;;;;;;5046773;28;20022;-49
2023/05/22 02:52:18;;;;;;;2.70;0.63;;;28.10;99.70;;;;;;5046730;28;20329;-50
2023/05/22 02:54:44;;;;;;;0.95;0.55;;;28.10;99.70;;;;;;5046662;28;20077;-49
2023/05/22 02:57:11;;;;;;;1.67;0.50;;;28.10;99.60;;;;;;5046574;28;20037;-46
2023/05/22 02:59:37;;;;;;;1.33;0.50;;;28.10;99.60;;;;;;5046552;28;20033;-47
2023/05/22 03:02:05;;;;;;;2.35;0.60;;;28.10;99.60;;;;;;5046466;28;20021;-43
2023/05/22 03:04:32;;;;;;;2.42;0.50;;;28.20;99.70;;;;;;5046276;28;20051;-42
2023/05/22 03:07:00;;;;;;;4.72;0.98;;;28.20;99.60;;;;;;5046333;28;20017;-51
2023/05/22 03:09:27;;;;;;;2.25;0.68;;;28.10;99.60;;;;;;5046206;28;20337;-44
2023/05/22 03:11:53;;;;;;;3.20;0.52;;;28.10;99.60;;;;;;5046246;28;20029;-51
2023/05/22 03:14:20;;;;;;;1.95;0.63;;;28.10;99.40;;;;;;5046323;28;20105;-45
2023/05/22 03:16:46;;;;;;;1.77;0.60;;;28.00;99.50;;;;;;5046298;28;20079;-52
2023/05/22 03:19:16;;;;;;;2.90;0.80;;;28.00;99.60;;;;;;5046183;28;20328;-45
2023/05/22 03:21:47;;;;;;;4.65;0.90;;;28.10;99.60;;;;;;5046021;28;20264;-48
2023/05/22 03:24:13;;;;;;;2.78;0.80;;;28.10;99.50;;;;;;5045433;28;20057;-53
2023/05/22 03:26:40;;;;;;;3.97;0.90;;;28.10;99.60;;;;;;5045510;28;20025;-52
2023/05/22 03:29:07;;;;;;;2.00;0.80;;;28.10;99.60;;;;;;5045773;28;20033;-44
2023/05/22 03:31:34;;;;;;;4.88;1.00;;;28.10;99.60;;;;;;5045957;28;20064;-44
2023/05/22 03:34:00;;;;;;;2.60;0.93;;;28.00;99.60;;;;;;5046403;28;20097;-43
2023/05/22 03:36:28;;;;;;;4.38;0.98;;;28.10;99.70;;;;;;5045769;28;20075;-49
2023/05/22 03:38:54;;;;;;;2.63;1.08;;;28.00;99.60;;;;;;5055366;28;20032;-45
2023/05/22 03:41:21;;;;;;;5.63;1.27;;;28.10;99.70;;;;;;5065649;28;20025;-47
2023/05/22 03:43:47;;;;;;;3.28;0.98;;;28.00;99.60;;;;;;5066030;28;20052;-49
2023/05/22 03:46:14;;;;;;;4.22;1.10;;;28.00;99.60;;;;;;5065584;28;20025;-44
2023/05/22 03:48:41;;;;;;;3.42;0.88;;;27.90;99.70;;;;;;5066036;28;20324;-46
2023/05/22 03:51:07;;;;;;;2.90;0.80;;;27.90;99.70;;;;;;5065536;28;20087;-49
2023/05/22 03:53:34;;;;;;;3.28;1.10;;;28.00;99.70;;;;;;5065787;28;20021;-43
2023/05/22 03:56:00;;;;;;;3.58;1.00;;;28.00;99.60;;;;;;5065589;28;20228;-42
2023/05/22 03:58:27;;;;;;;3.20;0.80;;;28.00;99.60;;;;;;5065734;28;20032;-44
2023/05/22 04:00:57;;;;;;;3.80;1.05;;;28.00;99.60;;;;;;5065216;28;20025;-46
2023/05/22 04:03:24;;;;;;;3.58;1.20;;;28.00;99.60;;;;;;5065645;28;20096;-50
2023/05/22 04:05:50;;;;;;;3.90;1.45;;;27.90;99.60;;;;;;5065182;28;20029;-43
2023/05/22 04:08:17;;;;;;;3.65;1.50;;;27.90;99.70;;;;;;5065377;28;20029;-45
2023/05/22 04:10:47;;;;;;;3.53;1.35;;;27.90;99.70;;;;;;5065044;28;20233;-44
2023/05/22 04:13:15;;;;;;;2.50;0.90;;;27.90;99.70;;;;;;5065100;28;20033;-49
2023/05/22 04:15:45;;;;;;;2.42;0.77;;;27.90;99.60;;;;;;5065339;28;20229;-46
2023/05/22 04:18:12;;;;;;;4.60;0.80;;;27.80;99.50;;;;;;5065320;28;20100;-45
2023/05/22 04:20:39;;;;;;;2.58;0.90;;;27.90;99.60;;;;;;5064860;28;20032;-46
2023/05/22 04:23:06;;;;;;;3.92;1.00;;;27.80;99.40;;;;;;5065338;28;20182;-43
2023/05/22 04:25:33;;;;;;;2.55;0.95;;;27.90;99.60;;;;;;5064835;28;20033;-43
2023/05/22 04:28:02;;;;;;;3.08;1.23;;;27.90;99.40;;;;;;5065084;28;20032;-51
2023/05/22 04:30:38;;;;;;;2.85;1.08;;;27.90;99.50;;;;;;5065039;28;20036;-45
2023/05/22 04:33:05;;;;;;;2.05;0.90;;;27.90;99.30;;;;;;5064997;28;20040;-51
2023/05/22 04:35:33;;;;;;;2.33;0.90;;;27.90;99.30;;;;;;5064778;28;20071;-50
2023/05/22 04:38:02;;;;;;;2.45;0.82;;;27.90;99.30;;;;;;5064853;28;20039;-50
2023/05/22 04:40:32;;;;;;;2.15;0.90;;;27.90;99.40;;;;;;5064943;28;20029;-53
2023/05/22 04:42:59;;;;;;;3.40;1.00;;;27.80;99.40;;;;;;5064710;28;20025;-52
2023/05/22 04:45:29;;;;;;;2.72;1.10;;;27.80;99.50;;;;;;5064439;28;20033;-46
2023/05/22 04:47:56;;;;;;;2.63;0.90;;;27.80;99.40;;;;;;5064744;28;20021;-47
2023/05/22 04:50:22;;;;;;;4.00;1.10;;;27.80;99.50;;;;;;5063287;28;20194;-50
2023/05/22 04:52:49;;;;;;;2.78;1.10;;;27.70;99.50;;;;;;5064619;28;20040;-50
2023/05/22 04:55:16;;;;;;;2.25;0.90;;;27.80;99.60;;;;;;5064523;28;20240;-41
2023/05/22 04:57:46;;;;;;;2.28;0.70;;;27.80;99.60;;;;;;5064087;28;20063;-45
2023/05/22 05:00:15;;;;;;;9.45;1.08;;;27.80;99.60;;;;;;5064315;28;20029;-43
2023/05/22 05:02:42;;;;;;;2.45;0.65;;;27.70;99.60;;;;;;5064388;28;20074;-45
2023/05/22 05:05:09;;;;;;;2.83;0.60;;;27.80;99.60;;;;;;5064382;28;20068;-47
2023/05/22 05:07:39;;;;;;;2.53;0.70;;;27.70;99.50;;;;;;5064462;28;20092;-42
2023/05/22 05:10:06;;;;;;;1.20;0.50;;;27.70;99.60;;;;;;5063961;28;20237;-45
2023/05/22 05:12:32;;;;;;;3.55;0.65;;;27.70;99.50;;;;;;5064161;28;20194;-44
2023/05/22 05:14:59;;;;;;;1.88;0.60;;;27.70;99.50;;;;;;5064075;28;20360;-49
2023/05/22 05:17:25;;;;;;;5.03;0.70;;;27.70;99.50;;;;;;5064168;28;20297;-45
2023/05/22 05:19:52;;;;;;;2.65;0.60;;;27.80;99.50;;;;;;5063949;28;20052;-44
2023/05/22 05:22:18;;;;;;;3.35;0.60;;;27.80;99.50;;;;;;5063940;28;20029;-43
2023/05/22 05:24:45;;;;;;;1.73;0.63;;;27.80;99.50;;;;;;5063819;28;20032;-42
2023/05/22 05:27:11;;;;;;;2.50;0.60;;;27.80;99.40;;;;;;5063798;28;20135;-48
2023/05/22 05:29:38;;;;;;;1.92;0.60;;;27.70;99.40;;;;;;5064028;28;20033;-45
2023/05/22 05:32:04;;;;;;;3.42;0.65;;;27.70;99.50;;;;;;5063854;28;20084;-44
2023/05/22 05:34:31;;;;;;;2.55;0.68;;;27.70;99.50;;;;;;5063694;28;20347;-43
2023/05/22 05:36:58;;;;;;;4.10;0.65;;;27.60;99.60;;;;;;5063718;28;20074;-44
2023/05/22 05:39:24;;;;;;;1.88;0.60;;;27.60;99.60;;;;;;5063773;28;20020;-49
2023/05/22 05:41:51;;;;;;;1.83;0.40;;;27.70;99.60;;;;;;5063477;28;20032;-44
2023/05/22 05:44:17;;;;;;;2.25;0.50;;;27.70;99.50;;;;;;5063806;28;20044;-43
2023/05/22 05:46:45;;;;;;;2.80;0.75;;;27.70;99.50;;;;;;5063959;28;20108;-45
2023/05/22 05:49:11;;;;;;;2.40;0.70;;;27.60;99.50;;;;;;5066482;28;20060;-44
2023/05/22 05:51:38;;;;;;;5.57;0.70;;;27.70;99.50;;;;;;5067827;28;20021;-46
2023/05/22 05:54:05;;;;;;;3.30;0.73;;;27.70;99.60;;;;;;5068242;28;20016;-48
2023/05/22 05:56:31;;;;;;;2.03;0.80;;;27.70;99.60;;;;;;5067630;28;20029;-52
2023/05/22 05:58:58;;;;;;;4.00;0.63;;;27.70;99.60;;;;;;5068170;28;20032;-47
2023/05/22 06:01:26;;;;;;;3.05;0.60;;;27.70;99.60;;;;;;5067682;28;20017;-51
2023/05/22 06:03:52;;;;;;;3.00;0.38;;;27.70;99.70;;;;;;5067862;28;20360;-50
2023/05/22 06:06:19;;;;;;;1.48;0.45;;;27.70;99.50;;;;;;5067666;28;20032;-45
2023/05/22 06:08:45;;;;;;;2.45;0.63;;;27.70;99.50;;;;;;5067945;28;20249;-46
2023/05/22 06:11:12;;;;;;;3.30;0.80;;;27.80;99.50;;;;;;5067265;28;20152;-54
2023/05/22 06:13:38;;;;;;;2.15;0.70;;;27.80;99.60;;;;;;5067847;28;20200;-53
2023/05/22 06:16:05;;;;;;;4.75;0.60;;;27.70;99.60;;;;;;5067471;28;20367;-50
2023/05/22 06:18:32;;;;;;;1.77;0.40;;;27.70;99.60;;;;;;5067614;28;20271;-49
2023/05/22 06:20:58;;;;;;;3.20;0.57;;;27.70;99.60;;;;;;5067316;28;20114;-47
2023/05/22 06:23:25;;;;;;;2.00;0.57;;;27.70;99.70;;;;;;5067764;28;20029;-51
2023/05/22 06:25:51;;;;;;;1.63;0.50;;;27.70;99.60;;;;;;5067097;28;20025;-48
2023/05/22 06:28:18;;;;;;;1.95;0.45;;;27.70;99.60;;;;;;5067443;28;20100;-48
2023/05/22 06:30:44;;;;;;;3.33;0.70;;;27.70;99.60;;;;;;5067144;28;20024;-51
2023/05/22 06:33:11;;;;;;;5.78;0.60;;;27.70;99.60;;;;;;5067404;28;20100;-51
2023/05/22 06:35:37;;;;;;;1.75;0.50;;;27.60;99.60;;;;;;5066908;28;20028;-53
2023/05/22 06:38:04;;;;;;;4.72;0.70;;;27.60;99.60;;;;;;5067258;28;20309;-50
2023/05/22 06:40:30;;;;;;;5.57;0.65;;;27.60;99.60;;;;;;5066960;28;20033;-48
2023/05/22 06:42:58;;;;;;;1.92;0.52;;;27.60;99.60;;;;;;5066715;28;20075;-50
2023/05/22 06:45:24;;;;;;;2.97;0.63;;;27.60;99.50;;;;;;5066756;28;20021;-49
2023/05/22 06:47:53;;;;;;;2.75;0.60;;;27.70;99.60;;;;;;5067006;28;20317;-48
2023/05/22 06:50:21;;;;;;;2.45;0.82;;;27.70;99.60;;;;;;5066621;28;20029;-49
2023/05/22 06:52:48;;;;;;;4.47;0.65;;;27.60;99.60;;;;;;5066945;28;20376;-53
2023/05/22 06:55:16;;;;;;;2.08;0.70;;;27.60;99.60;;;;;;5066615;28;20037;-53
2023/05/22 06:57:42;;;;;;;1.73;0.60;;;27.50;99.60;;;;;;5066697;28;20075;-53
2023/05/22 07:00:11;;;;;;;2.28;0.70;;;27.60;99.50;;;;;;5066525;28;20089;-56
2023/05/22 07:02:38;;;;;;;3.63;0.82;;;27.60;99.70;;;;;;5066727;28;20037;-47
2023/05/22 07:05:05;;;;;;;2.53;1.20;;;27.60;99.70;;;;;;5066285;28;20040;-46
2023/05/22 07:07:32;;;;;;;4.45;1.30;;;27.60;99.60;;;;;;5066502;28;20046;-51
2023/05/22 07:09:58;;;;;;;4.03;1.10;;;27.60;99.60;;;;;;5066230;28;20048;-42
2023/05/22 07:12:26;;;;;;;5.93;1.20;;;27.60;99.60;;;;;;5066403;28;20033;-50
2023/05/22 07:14:53;;;;;;;3.70;1.20;;;27.60;99.60;;;;;;5066424;28;20228;-50
2023/05/22 07:17:20;;;;;;;6.40;1.60;;;27.60;99.60;;;;;;5066267;28;20032;-48
2023/05/22 07:19:50;;;;;;;2.53;1.10;;;27.60;99.60;;;;;;5066056;28;20033;-43
2023/05/22 07:22:16;;;;;;;3.13;1.13;;;27.60;99.60;;;;;;5066165;28;20025;-50
2023/05/22 07:24:43;;;;;;;3.78;1.30;;;27.50;99.50;;;;;;5065970;28;20044;-48
2023/05/22 07:27:11;;;;;;;5.43;1.38;;;27.60;99.60;;;;;;5065990;28;20032;-46
2023/05/22 07:29:37;;;;;;;4.30;1.10;;;27.60;99.60;;;;;;5065983;28;20332;-49
2023/05/22 07:32:04;;;;;;;2.58;0.93;;;27.60;99.50;;;;;;5065998;28;20090;-44
2023/05/22 07:34:32;;;;;;;2.67;0.65;;;27.50;99.50;;;;;;5065867;28;20056;-46
2023/05/22 07:37:00;;;;;;;2.83;0.80;;;27.60;99.60;;;;;;5065885;28;20028;-44
2023/05/22 07:39:27;;;;;;;2.95;0.82;;;27.50;99.70;;;;;;5065899;28;20032;-47
2023/05/22 07:41:54;;;;;;;3.78;0.75;;;27.60;99.70;;;;;;5065617;28;20344;-46
2023/05/22 07:44:20;;;;;;;2.35;0.70;;;27.50;99.60;;;;;;5065742;28;20075;-44
2023/05/22 07:46:47;;;;;;;1.80;0.63;;;27.50;99.60;;;;;;5065714;28;20048;-48
2023/05/22 07:49:18;;;;;;;1.50;0.50;;;27.60;99.70;;;;;;5065484;28;20029;-43
2023/05/22 07:51:45;;;;;;;1.45;0.50;;;27.50;99.60;;;;;;5065567;28;20104;-51
2023/05/22 07:54:13;;;;;;;3.05;0.80;;;27.50;99.60;;;;;;5066076;28;20036;-50
2023/05/22 07:56:42;;;;;;;1.40;0.45;;;27.50;99.60;;;;;;5065385;28;20195;-46
2023/05/22 07:59:10;;;;;;;2.97;0.60;;;27.40;99.70;;;;;;5065981;28;20209;-45
2023/05/22 08:01:43;;;;;;;2.10;0.50;;;27.50;99.60;;;;;;5065413;28;20202;-50
2023/05/22 08:04:09;;;;;;;;;;;27.60;99.50;;;;;;5066260;28;20033;-48
2023/05/22 08:06:35;;;;;;;4.30;0.68;;;27.50;99.60;;;;;;5065320;28;19904;-46
2023/05/22 08:09:05;;;;;;;2.63;0.90;;;27.50;99.70;;;;;;5065579;28;20331;-48
2023/05/22 08:11:33;;;;;;;2.15;0.70;;;27.50;99.60;;;;;;5064459;28;20049;-53
2023/05/22 08:14:00;;;;;;;2.22;0.73;;;27.60;99.60;;;;;;5065113;28;20229;-47
2023/05/22 08:16:27;;;;;;;1.95;0.60;;;27.60;99.60;;;;;;5064988;28;20354;-42
2023/05/22 08:18:53;;;;;;;1.63;0.60;;;27.50;99.50;;;;;;5065641;28;20213;-43
2023/05/22 08:21:20;;;;;;;1.55;0.50;;;27.60;99.60;;;;;;5065223;28;20040;-44
2023/05/22 08:23:46;;;;;;;3.20;0.40;;;27.50;99.50;;;;;;5065303;28;20248;-50
2023/05/22 08:26:14;;;;;;;6.78;0.68;;;27.50;99.50;;;;;;5064813;28;20063;-48
2023/05/22 08:28:43;;;;;;;2.88;0.73;;;27.50;99.50;;;;;;5065349;28;20314;-47
2023/05/22 08:31:12;;;;;;;2.45;0.50;;;27.50;99.60;;;;;;5064978;28;20092;-47
2023/05/22 08:33:39;;;;;;;3.40;0.70;;;27.40;99.50;;;;;;5065292;28;20231;-42
2023/05/22 08:36:06;;;;;;;2.97;0.55;;;27.40;99.60;;;;;;5065061;28;20340;-45
2023/05/22 08:38:32;;;;;;;2.13;0.40;;;27.50;99.60;;;;;;5064965;28;20039;-44
2023/05/22 08:40:59;;;;;;;3.28;0.45;;;27.50;99.50;;;;;;5064722;28;20021;-42
2023/05/22 08:43:27;;;;;;;1.65;0.40;;;27.40;99.50;;;;;;5065014;28;20033;-44
2023/05/22 08:46:03;;;;;;;3.47;0.40;;;27.40;99.50;;;;;;5064341;28;20067;-48
2023/05/22 08:48:31;;;;;;;3.20;0.32;;;27.40;99.40;;;;;;5064936;28;20036;-43
2023/05/22 08:51:03;;;;;;;4.90;0.30;;;27.50;99.50;;;;;;5064501;28;20025;-46
2023/05/22 08:53:36;;;;;;;3.38;0.40;;;27.50;99.40;;;;;;5064707;28;20033;-44
2023/05/22 08:56:05;;;;;;;2.67;0.30;;;27.50;99.40;;;;;;5064516;28;20198;-45
2023/05/22 08:58:34;;;;;;;2.88;0.40;;;27.50;99.50;;;;;;5064579;28;20029;-49
2023/05/22 09:01:02;;;;;;;1.23;0.20;;;27.50;99.30;;;;;;5064261;28;20048;-49
2023/05/22 09:03:31;;;;;;;2.97;0.55;;;27.50;99.40;;;;;;5064571;28;20100;-54
2023/05/22 09:05:59;;;;;;;3.03;0.40;;;27.50;99.40;;;;;;5064054;28;20043;-50
2023/05/22 09:08:26;;;;;;;2.50;0.20;;;27.50;99.50;;;;;;5064460;28;20074;-50
2023/05/22 09:10:54;;;;;;;2.35;0.40;;;27.50;99.40;;;;;;5064055;28;20048;-50
2023/05/22 09:13:30;;;;;;;1.27;0.35;;;27.40;99.50;;;;;;5063963;28;20035;-54
2023/05/22 09:16:14;;;;;;;2.10;0.40;;;27.50;99.50;;;;;;5064132;28;20100;-54
2023/05/22 09:18:41;;;;;;;1.73;0.30;;;27.50;99.50;;;;;;5064347;28;20033;-45
2023/05/22 09:21:09;;;;;;;2.53;0.45;;;27.50;99.50;;;;;;5064219;28;20065;-43
2023/05/22 09:23:36;;;;;;;2.97;0.50;;;27.40;99.40;;;;;;5064234;28;20056;-43
2023/05/22 09:26:03;;;;;;;3.85;0.50;;;27.40;99.50;;;;;;5063734;28;20249;-49
2023/05/22 09:28:36;;;;;;;3.22;0.45;;;27.40;99.50;;;;;;5064310;28;20253;-47
2023/05/22 09:31:04;;;;;;;2.63;0.40;;;27.40;99.50;;;;;;5063812;28;20059;-44
2023/05/22 09:33:32;;;;;;;3.03;0.40;;;27.50;99.50;;;;;;5064192;28;20025;-49
2023/05/22 09:36:00;;;;;;;1.92;0.47;;;27.40;99.50;;;;;;5063787;28;20278;-44
2023/05/22 09:38:29;;;;;;;2.85;0.47;;;27.50;99.50;;;;;;5064229;28;20071;-44
2023/05/22 09:40:56;;;;;;;2.85;0.40;;;27.40;99.50;;;;;;5063889;28;20059;-44
2023/05/22 09:43:26;;;;;;;3.25;0.40;;;27.50;99.80;;;;;;5064004;28;20300;-41
2023/05/22 09:46:05;;;;;;;3.60;0.50;;;27.40;99.40;;;;;;5063520;28;20040;-44
2023/05/22 09:48:35;;;;;;;5.45;0.50;;;27.40;99.50;;;;;;5063907;28;20078;-43
2023/05/22 09:51:03;;;;;;;1.77;0.35;;;27.50;99.60;;;;;;5063731;28;20333;-42
2023/05/22 09:53:32;;;;;;;2.03;0.50;;;27.40;99.50;;;;;;5063804;28;20033;-44
2023/05/22 09:56:01;;;;;;;2.55;0.43;;;27.40;99.60;;;;;;5063654;28;20100;-43
2023/05/22 09:58:30;;;;;;;5.68;0.50;;;27.40;99.60;;;;;;5063595;28;20029;-49
2023/05/22 10:00:58;;;;;;;1.52;0.40;;;27.40;99.50;;;;;;5063605;28;20064;-43
2023/05/22 10:03:26;;;;;;;1.73;0.60;;;27.40;99.40;;;;;;5063910;28;20060;-44
2023/05/22 10:05:57;;;;;;;3.88;0.50;;;27.40;99.50;;;;;;5063348;28;20033;-44
2023/05/22 10:08:36;;;;;;;3.33;0.70;;;27.50;99.50;;;;;;5063808;28;20049;-46
2023/05/22 10:11:05;;;;;;;3.47;0.68;;;27.40;99.50;;;;;;5063667;28;20045;-41
2023/05/22 10:13:34;;;;;;;5.70;1.10;;;27.50;99.50;;;;;;5061129;28;20028;-41
2023/05/22 10:16:06;;;;;;;3.80;1.02;;;27.40;99.50;;;;;;5057779;28;20040;-51
2023/05/22 10:18:39;;;;;;;2.53;0.63;;;27.50;99.50;;;;;;5063656;28;20037;-47
2023/05/22 10:21:06;;;;;;;3.33;0.82;;;27.50;99.50;;;;;;5054711;28;20028;-47
2023/05/22 10:23:32;;;;;;;3.42;0.70;;;27.50;99.40;;;;;;5043841;28;20038;-44
2023/05/22 10:25:59;;;;;;;2.53;0.73;;;27.40;99.50;;;;;;5043333;28;20027;-43
2023/05/22 10:28:34;;;;;;;4.85;0.80;;;27.40;99.60;;;;;;5043730;28;20036;-43
2023/05/22 10:31:23;;;;;;;3.58;0.90;;;27.50;99.60;;;;;;5043311;28;20040;-40
2023/05/22 10:34:00;;;;;;;2.63;1.00;;;27.40;99.50;;;;;;5043785;28;20096;-50
2023/05/22 10:37:14;;;;;;;4.32;0.90;;;27.40;99.50;;;;;;5046921;28;20075;-51
2023/05/22 10:40:00;;;;;;;17.08;1.42;;;27.40;99.50;;;;;;5045881;28;20334;-48
2023/05/22 10:42:31;;;;;;;5.75;1.00;;;27.20;99.60;;;;;;5051014;28;20029;-42
2023/05/22 10:45:02;;;;;;;6.10;0.75;;;27.20;99.60;;;;;;5053214;28;20377;-42
2023/05/22 10:47:28;;;;;;;9.15;0.98;;;27.20;99.70;;;;;;5047003;28;20036;-45
2023/05/22 10:50:09;;;;;;;9.57;1.20;;;27.20;99.90;;;;;;5046696;28;20199;-43
2023/05/22 10:52:37;;;;;;;7.00;1.42;;;27.20;99.90;;;;;;5047082;28;20021;-43
2023/05/22 10:55:08;;;;;;;5.05;1.13;;;27.20;99.90;;;;;;5054559;28;20041;-58
2023/05/22 10:57:37;;;;;;;7.65;1.27;;;27.30;99.90;;;;;;5046730;28;20036;-51
2023/05/22 11:00:14;;;;;;;6.97;1.25;;;27.30;99.90;;;;;;5056156;28;20025;-42
2023/05/22 11:02:45;;;;;;;8.88;1.60;;;27.40;99.90;;;;;;5047055;28;20250;-56
2023/05/22 11:05:20;;;;;;;5.65;1.52;;;27.40;99.90;;;;;;5046488;28;20109;-52
2023/05/22 11:07:47;;;;;;;7.68;1.48;;;27.30;99.90;;;;;;5046793;28;20071;-53
2023/05/22 11:10:14;;;;;;;9.52;1.50;;;27.30;99.90;;;;;;5046233;28;20051;-43
2023/05/22 11:12:40;;;;;;;5.70;1.10;;;27.40;99.90;;;;;;5046672;28;20036;-43
2023/05/22 11:15:08;;;;;;;7.68;1.20;;;27.40;99.90;;;;;;5046486;28;20088;-46
2023/05/22 11:17:43;;;;;;;4.93;1.00;;;27.50;99.90;;;;;;5046424;28;20104;-41
2023/05/22 11:20:29;;;;;;;4.18;1.33;;;27.50;99.90;;;;;;5063279;28;20060;-45
2023/05/22 11:23:00;;;;;;;4.88;1.20;;;27.60;99.90;;;;;;5066361;28;20064;-41
2023/05/22 11:25:27;;;;;;;3.30;1.20;;;27.70;99.90;;;;;;5066242;28;20229;-41
2023/05/22 11:27:55;;;;;;;4.80;1.33;;;27.70;99.90;;;;;;5066380;28;20040;-52
2023/05/22 11:30:26;;;;;;;3.70;1.02;;;27.70;99.90;;;;;;5066272;28;20025;-43
2023/05/22 11:32:53;;;;;;;7.77;1.70;;;27.70;99.90;;;;;;5066208;28;20092;-44
2023/05/22 11:35:21;;;;;;;4.47;1.27;;;27.70;99.90;;;;;;5066017;28;20021;-43
2023/05/22 11:37:48;;;;;;;3.95;1.80;;;27.70;99.90;;;;;;5061586;28;20041;-41
2023/05/22 11:40:21;;;;;;;7.90;1.90;;;27.80;99.90;;;;;;5052917;28;20345;-40
2023/05/22 11:42:47;;;;;;;3.35;1.13;;;27.90;99.90;;;;;;5054769;28;20029;-40
2023/05/22 11:45:14;;;;;;;4.95;1.30;;;28.00;99.90;;;;;;5045578;28;20253;-40
2023/05/22 11:47:40;;;;;;;5.22;1.33;;;28.00;99.90;;;;;;5045386;28;20028;-41
2023/05/22 11:50:11;;;;;;;5.30;1.02;;;28.00;99.90;;;;;;5045843;28;20025;-40
2023/05/22 11:52:40;;;;;;;7.25;1.30;;;28.00;99.90;;;;;;5045907;28;20305;-40
2023/05/22 11:55:07;;;;;;;3.92;0.98;;;28.00;99.90;;;;;;5045818;28;20022;-41
2023/05/22 11:57:34;;;;;;;5.13;1.08;;;28.00;99.90;;;;;;5045623;28;20056;-40
2023/05/22 12:00:04;;;;;;;3.13;1.30;;;28.00;99.90;;;;;;5045518;28;20084;-40
2023/05/22 12:02:31;;;;;;;4.93;0.95;;;28.00;99.90;;;;;;5045651;28;20049;-45
2023/05/22 12:04:58;;;;;;;6.60;0.80;;;28.00;99.90;;;;;;5045303;28;20044;-40
2023/05/22 12:07:26;;;;;;;5.47;1.10;;;28.00;99.90;;;;;;5045581;28;20051;-49
2023/05/22 12:09:55;;;;;;;4.20;1.30;;;28.00;99.90;;;;;;5045311;28;20245;-43
2023/05/22 12:12:25;;;;;;;;;;;28.00;99.90;;;;;;5045732;28;20075;-40
2023/05/22 12:14:52;;;;;;;2.35;0.90;;;28.10;99.90;;;;;;5048577;28;19904;-39
2023/05/22 12:17:18;;;;;;;2.70;0.63;;;28.10;99.90;;;;;;5056512;28;20033;-39
2023/05/22 12:19:46;;;;;;;5.97;1.35;;;28.10;99.90;;;;;;5060424;28;20092;-42
2023/05/22 12:22:13;;;;;;;3.58;1.17;;;28.10;99.90;;;;;;5056487;28;20025;-45
2023/05/22 12:24:45;;;;;;;5.45;1.20;;;28.10;99.90;;;;;;5064860;28;20040;-43
2023/05/22 12:27:12;;;;;;;5.38;1.02;;;28.20;99.90;;;;;;5057723;28;20361;-50
2023/05/22 12:29:40;;;;;;;5.57;1.00;;;28.10;99.90;;;;;;5047487;28;20213;-41
2023/05/22 12:32:11;;;;;;;2.75;1.00;;;28.20;99.90;;;;;;5044461;28;20016;-40
2023/05/22 12:34:45;;;;;;;5.00;0.90;;;28.20;99.90;;;;;;5044963;28;20037;-41
2023/05/22 12:37:23;;;;;;;4.70;1.10;;;28.20;99.90;;;;;;5044928;28;20201;-42
2023/05/22 12:39:59;;;;;;;4.13;0.90;;;28.20;99.90;;;;;;5044817;28;20048;-50
2023/05/22 12:42:26;;;;;;;5.10;1.10;;;28.30;99.90;;;;;;5054718;28;20025;-41
2023/05/22 12:44:54;;;;;;;5.40;1.10;;;28.20;99.90;;;;;;5063478;28;20037;-47
2023/05/22 12:47:21;;;;;;;5.50;1.17;;;28.20;99.90;;;;;;5053059;28;20024;-41
2023/05/22 12:49:50;;;;;;;6.43;1.10;;;28.20;99.90;;;;;;5064702;28;20058;-40
2023/05/22 12:52:17;;;;;;;4.95;1.25;;;28.30;99.90;;;;;;5050963;28;20056;-46
2023/05/22 12:54:44;;;;;;;6.47;0.82;;;28.30;99.90;;;;;;5060837;28;20373;-42
2023/05/22 12:57:10;;;;;;;6.72;0.93;;;28.20;99.90;;;;;;5058141;28;20033;-43